createdAt,value
2023-02-25T00:01:27.499Z,99939.78
2023-02-25T00:03:56.143Z,99947.94
2023-02-25T00:06:23.958Z,99890.13
2023-02-25T00:08:51.618Z,99947.78
2023-02-25T00:11:20.048Z,99939.72
2023-02-25T00:13:47.894Z,99909.22
2023-02-25T00:16:15.609Z,99947.94
2023-02-25T00:18:47.165Z,99932.19
2023-02-25T00:21:17.023Z,99942.38
2023-02-25T00:23:46.608Z,99960.72
2023-02-25T00:26:16.404Z,99934.13
2023-02-25T00:28:44.564Z,99959.69
2023-02-25T00:31:17.872Z,99957.88
2023-02-25T00:33:44.791Z,99968.56
2023-02-25T00:36:23.486Z,99969.38
2023-02-25T00:38:56.196Z,99970.09
2023-02-25T00:41:27.154Z,99969.91
2023-02-25T00:43:56.935Z,99982.34
2023-02-25T00:46:25.595Z,99987.72
2023-02-25T00:48:53.320Z,99994.78
2023-02-25T00:51:23.752Z,99989.16
2023-02-25T00:53:51.890Z,99993.03
2023-02-25T00:56:20.614Z,99975.19
2023-02-25T00:58:50.406Z,100004.91
2023-02-25T01:01:23.106Z,100010.47
2023-02-25T01:03:52.624Z,100007.56
2023-02-25T01:06:19.862Z,100015.84
2023-02-25T01:08:47.350Z,100018.38
2023-02-25T01:11:16.536Z,100015.13
2023-02-25T01:13:44.200Z,99998.00
2023-02-25T01:16:16.159Z,100012.81
2023-02-25T01:18:44.726Z,100008.94
2023-02-25T01:21:27.162Z,100016.91
2023-02-25T01:24:04.444Z,100014.22
2023-02-25T01:26:35.456Z,100025.38
2023-02-25T01:29:05.917Z,100029.59
2023-02-25T01:31:32.965Z,100029.25
2023-02-25T01:34:03.883Z,100035.91
2023-02-25T01:36:32.517Z,100043.34
2023-02-25T01:39:00.750Z,100038.66
2023-02-25T01:41:30.930Z,100044.59
2023-02-25T01:44:16.806Z,100046.28
2023-02-25T01:46:46.978Z,100046.75
2023-02-25T01:49:30.398Z,100052.22
2023-02-25T01:52:13.788Z,100059.31
2023-02-25T01:54:45.848Z,100058.66
2023-02-25T01:57:15.949Z,100063.75
2023-02-25T01:59:44.466Z,100050.50
2023-02-25T02:02:18.449Z,100069.69
2023-02-25T02:04:50.502Z,100073.22
2023-02-25T02:07:18.981Z,100048.63
2023-02-25T02:10:00.241Z,100082.53
2023-02-25T02:12:32.018Z,100083.22
2023-02-25T02:15:01.242Z,100069.13
2023-02-25T02:17:43.955Z,100096.41
2023-02-25T02:20:23.289Z,100082.22
2023-02-25T02:23:11.266Z,100084.94
2023-02-25T02:26:02.936Z,100097.75
2023-02-25T02:29:03.618Z,100105.13
2023-02-25T02:31:39.925Z,100113.97
2023-02-25T02:34:40.117Z,100110.06
2023-02-25T02:37:11.393Z,100114.06
2023-02-25T02:40:00.174Z,100115.53
2023-02-25T02:42:45.103Z,100123.25
2023-02-25T02:45:50.445Z,100126.81
2023-02-25T02:49:06.587Z,100132.88
2023-02-25T02:51:40.201Z,100121.66
2023-02-25T02:54:10.760Z,100134.53
2023-02-25T02:56:42.493Z,100150.53
2023-02-25T02:59:26.417Z,100139.06
2023-02-25T03:02:04.662Z,100155.78
2023-02-25T03:04:36.262Z,100151.31
2023-02-25T03:07:07.509Z,100147.69
2023-02-25T03:09:40.152Z,100159.78
2023-02-25T03:12:07.396Z,100125.34
2023-02-25T03:14:36.380Z,100158.38
2023-02-25T03:17:19.762Z,100165.00
2023-02-25T03:20:16.922Z,100167.53
2023-02-25T03:22:48.066Z,100167.50
2023-02-25T03:25:25.772Z,100174.25
2023-02-25T03:27:55.865Z,100181.28
2023-02-25T03:30:28.409Z,100184.22
2023-02-25T03:33:34.891Z,100181.97
2023-02-25T03:36:09.227Z,100187.38
2023-02-25T03:38:39.492Z,100194.59
2023-02-25T03:41:08.597Z,100172.31
2023-02-25T03:43:44.594Z,100198.69
2023-02-25T03:46:12.807Z,100200.19
2023-02-25T03:48:40.888Z,100180.97
2023-02-25T03:51:09.002Z,100220.09
2023-02-25T03:53:36.444Z,100225.97
2023-02-25T03:56:07.440Z,100230.66
2023-02-25T03:58:40.797Z,100206.81
2023-02-25T04:01:17.354Z,100238.78
2023-02-25T04:03:44.776Z,100247.34
2023-02-25T04:06:14.830Z,100250.47
2023-02-25T04:08:42.414Z,100251.28
2023-02-25T04:11:09.364Z,100249.94
2023-02-25T04:13:36.306Z,100247.38
2023-02-25T04:16:03.253Z,100249.88
2023-02-25T04:18:30.145Z,100230.13
2023-02-25T04:20:56.985Z,100262.28
2023-02-25T04:23:24.016Z,100261.19
2023-02-25T04:25:50.973Z,100262.88
2023-02-25T04:28:18.278Z,100272.75
2023-02-25T04:30:45.307Z,100269.19
2023-02-25T04:33:12.415Z,100263.63
2023-02-25T04:35:39.588Z,100271.56
2023-02-25T04:38:09.035Z,100272.09
2023-02-25T04:40:36.582Z,100268.53
2023-02-25T04:43:03.795Z,100274.34
2023-02-25T04:45:31.044Z,100272.97
2023-02-25T04:48:00.950Z,100275.19
2023-02-25T04:50:28.230Z,100278.53
2023-02-25T04:52:55.232Z,100273.78
2023-02-25T04:55:22.212Z,100275.16
2023-02-25T04:57:49.178Z,100285.63
2023-02-25T05:00:19.748Z,100276.00
2023-02-25T05:02:48.162Z,100281.16
2023-02-25T05:05:15.966Z,100266.09
2023-02-25T05:07:43.688Z,100274.84
2023-02-25T05:10:14.688Z,100286.94
2023-02-25T05:12:41.793Z,100293.56
2023-02-25T05:15:09.688Z,100292.22
2023-02-25T05:17:37.024Z,100290.59
2023-02-25T05:20:13.454Z,100293.63
2023-02-25T05:22:42.247Z,100292.81
2023-02-25T05:25:10.452Z,100304.56
2023-02-25T05:27:37.621Z,100302.63
2023-02-25T05:30:05.446Z,100264.75
2023-02-25T05:32:32.636Z,100314.66
2023-02-25T05:34:59.708Z,100312.72
2023-02-25T05:37:26.703Z,100310.00
2023-02-25T05:39:53.572Z,100305.59
2023-02-25T05:42:20.534Z,100316.06
2023-02-25T05:44:47.566Z,100314.50
2023-02-25T05:47:15.333Z,100316.66
2023-02-25T05:49:43.034Z,100320.53
2023-02-25T05:52:14.692Z,100326.78
2023-02-25T05:54:41.939Z,100330.34
2023-02-25T05:57:09.223Z,100339.94
2023-02-25T05:59:37.063Z,100319.63
2023-02-25T06:02:04.861Z,100341.28
2023-02-25T06:04:32.512Z,100342.75
2023-02-25T06:06:59.436Z,100349.88
2023-02-25T06:09:27.543Z,100354.28
2023-02-25T06:11:54.409Z,100357.84
2023-02-25T06:14:21.230Z,100362.00
2023-02-25T06:16:48.076Z,100370.81
2023-02-25T06:19:15.309Z,100377.66
2023-02-25T06:21:42.372Z,100374.63
2023-02-25T06:24:10.658Z,100349.97
2023-02-25T06:26:42.036Z,100395.25
2023-02-25T06:29:10.272Z,100396.03
2023-02-25T06:31:37.825Z,100396.84
2023-02-25T06:34:05.562Z,100413.63
2023-02-25T06:36:33.039Z,100408.47
2023-02-25T06:39:02.930Z,100423.06
2023-02-25T06:41:29.924Z,100423.88
2023-02-25T06:43:57.022Z,100430.22
2023-02-25T06:46:26.335Z,100433.81
2023-02-25T06:48:55.130Z,100436.28
2023-02-25T06:51:22.475Z,100428.59
2023-02-25T06:53:51.197Z,100441.22
2023-02-25T06:56:20.614Z,100433.25
2023-02-25T06:58:48.175Z,100440.31
2023-02-25T07:01:16.690Z,100437.88
2023-02-25T07:03:44.067Z,100459.34
2023-02-25T07:06:16.127Z,100455.16
2023-02-25T07:08:42.975Z,100470.91
2023-02-25T07:11:19.525Z,100474.44
2023-02-25T07:13:50.070Z,100473.56
2023-02-25T07:16:17.635Z,100484.00
2023-02-25T07:18:45.036Z,100479.25
2023-02-25T07:21:13.411Z,100486.72
2023-02-25T07:23:40.937Z,100492.75
2023-02-25T07:26:10.243Z,100493.28
2023-02-25T07:28:37.666Z,100501.50
2023-02-25T07:31:11.504Z,100496.88
2023-02-25T07:33:38.483Z,100510.88
2023-02-25T07:36:05.757Z,100499.09
2023-02-25T07:38:32.711Z,100516.31
2023-02-25T07:41:10.298Z,100515.78
2023-02-25T07:43:37.439Z,100519.34
2023-02-25T07:46:04.776Z,100529.25
2023-02-25T07:48:31.941Z,100525.94
2023-02-25T07:51:11.087Z,100528.72
2023-02-25T07:53:38.920Z,100535.28
2023-02-25T07:56:10.410Z,100549.91
2023-02-25T07:58:37.679Z,100545.00
2023-02-25T08:01:17.457Z,100550.50
2023-02-25T08:03:44.633Z,100559.06
2023-02-25T08:06:11.571Z,100559.06
2023-02-25T08:08:38.706Z,100556.28
2023-02-25T08:11:11.519Z,100565.03
2023-02-25T08:13:38.996Z,100561.69
2023-02-25T08:16:10.882Z,100569.91
2023-02-25T08:18:38.413Z,100569.63
2023-02-25T08:21:06.200Z,100574.00
2023-02-25T08:23:33.134Z,100571.50
2023-02-25T08:26:01.024Z,100565.78
2023-02-25T08:28:34.291Z,100575.88
2023-02-25T08:31:03.447Z,100580.03
2023-02-25T08:33:30.706Z,100582.31
2023-02-25T08:36:07.370Z,100563.56
2023-02-25T08:38:34.394Z,100608.56
2023-02-25T08:41:01.421Z,100599.13
2023-02-25T08:43:28.450Z,100607.22
2023-02-25T08:45:56.962Z,100610.84
2023-02-25T08:48:23.922Z,100627.13
2023-02-25T08:50:50.816Z,100632.63
2023-02-25T08:53:18.151Z,100635.97
2023-02-25T08:55:47.504Z,100638.13
2023-02-25T08:58:14.672Z,100623.56
2023-02-25T09:00:41.757Z,100647.44
2023-02-25T09:03:09.079Z,100652.50
2023-02-25T09:05:38.289Z,100661.44
2023-02-25T09:08:05.339Z,100668.09
2023-02-25T09:10:48.336Z,100609.22
2023-02-25T09:13:17.532Z,100664.19
2023-02-25T09:15:44.378Z,100657.34
2023-02-25T09:18:12.078Z,100670.53
2023-02-25T09:20:39.147Z,100678.06
2023-02-25T09:23:06.256Z,100682.09
2023-02-25T09:25:33.252Z,100685.31
2023-02-25T09:28:01.339Z,100692.97
2023-02-25T09:30:28.562Z,100694.09
2023-02-25T09:32:56.023Z,100691.59
2023-02-25T09:35:24.489Z,100703.81
2023-02-25T09:37:52.837Z,100707.78
2023-02-25T09:40:23.123Z,100704.28
2023-02-25T09:43:06.340Z,100696.97
2023-02-25T09:45:35.652Z,100693.28
2023-02-25T09:48:15.241Z,100695.22
2023-02-25T09:50:47.638Z,100703.38
2023-02-25T09:53:26.431Z,100733.13
2023-02-25T09:55:53.770Z,100739.25
2023-02-25T09:58:37.904Z,100740.44
2023-02-25T10:01:11.477Z,100737.00
2023-02-25T10:03:54.691Z,100744.47
2023-02-25T10:06:35.543Z,100730.75
2023-02-25T10:09:25.890Z,100721.66
2023-02-25T10:12:16.344Z,100754.31
2023-02-25T10:15:23.183Z,100768.22
2023-02-25T10:18:28.849Z,100772.47
2023-02-25T10:20:58.753Z,100791.19
2023-02-25T10:23:50.127Z,100798.91
2023-02-25T10:26:22.036Z,100802.59
2023-02-25T10:28:55.374Z,100811.22
2023-02-25T10:31:24.003Z,100817.53
2023-02-25T10:33:53.127Z,100824.53
2023-02-25T10:36:35.023Z,100830.97
2023-02-25T10:39:04.779Z,100842.34
2023-02-25T10:41:31.915Z,100841.00
2023-02-25T10:44:01.769Z,100832.66
2023-02-25T10:47:00.579Z,100837.38
2023-02-25T10:49:30.519Z,100845.78
2023-02-25T10:52:05.567Z,100843.22
2023-02-25T10:54:35.605Z,100842.19
2023-02-25T10:57:14.963Z,100847.03
2023-02-25T10:59:43.659Z,100867.09
2023-02-25T11:02:28.909Z,100869.88
2023-02-25T11:04:56.624Z,100879.06
2023-02-25T11:07:49.094Z,100885.94
2023-02-25T11:10:20.830Z,100890.25
2023-02-25T11:12:57.358Z,100887.88
2023-02-25T11:15:43.607Z,100892.50
2023-02-25T11:18:31.185Z,100887.53
2023-02-25T11:21:02.061Z,100898.72
2023-02-25T11:23:44.217Z,100904.94
2023-02-25T11:26:35.196Z,100908.84
2023-02-25T11:29:14.466Z,100907.88
2023-02-25T11:31:43.629Z,100901.72
2023-02-25T11:34:20.417Z,100905.59
2023-02-25T11:36:50.806Z,100910.25
2023-02-25T11:39:24.625Z,100912.44
2023-02-25T11:41:55.318Z,100913.66
2023-02-25T11:44:43.635Z,100918.75
2023-02-25T11:47:14.335Z,100914.47
2023-02-25T11:49:42.591Z,100913.59
2023-02-25T11:52:40.177Z,100917.66
2023-02-25T11:55:44.586Z,100917.84
2023-02-25T11:58:17.701Z,100927.78
2023-02-25T12:01:01.619Z,100930.22
2023-02-25T12:03:47.370Z,100924.16
2023-02-25T12:06:44.898Z,100916.91
2023-02-25T12:10:11.953Z,100918.75
2023-02-25T12:13:34.012Z,100915.06
2023-02-25T12:16:15.882Z,100927.75
2023-02-25T12:19:19.994Z,100913.75
2023-02-25T12:22:13.611Z,100914.53
2023-02-25T12:24:53.351Z,100937.09
2023-02-25T12:27:47.411Z,100917.50
2023-02-25T12:30:16.934Z,100932.50
2023-02-25T12:33:02.412Z,100938.56
2023-02-25T12:35:49.885Z,100940.88
2023-02-25T12:38:41.329Z,100941.09
2023-02-25T12:41:17.281Z,100939.00
2023-02-25T12:43:56.192Z,100933.56
2023-02-25T12:47:30.472Z,100932.31
2023-02-25T12:50:15.774Z,100940.66
2023-02-25T12:52:43.442Z,100943.38
2023-02-25T12:55:25.675Z,100945.06
2023-02-25T12:58:04.574Z,100940.09
2023-02-25T13:00:58.946Z,100946.97
2023-02-25T13:03:33.436Z,100944.75
2023-02-25T13:06:15.413Z,100945.88
2023-02-25T13:08:45.234Z,100948.91
2023-02-25T13:11:23.812Z,100963.00
2023-02-25T13:14:09.636Z,100954.19
2023-02-25T13:16:45.417Z,100961.06
2023-02-25T13:19:21.427Z,100970.88
2023-02-25T13:21:58.976Z,100974.47
2023-02-25T13:24:55.949Z,100974.09
2023-02-25T13:27:46.636Z,100979.16
2023-02-25T13:30:44.756Z,100974.91
2023-02-25T13:33:11.798Z,100986.53
2023-02-25T13:36:01.500Z,100982.94
2023-02-25T13:38:39.029Z,100982.66
2023-02-25T13:41:12.304Z,100995.63
2023-02-25T13:43:54.346Z,100999.75
2023-02-25T13:46:51.556Z,101005.75
2023-02-25T13:49:43.170Z,101002.53
2023-02-25T13:52:55.005Z,101012.22
2023-02-25T13:55:22.196Z,101024.44
2023-02-25T13:58:07.076Z,101023.94
2023-02-25T14:00:53.826Z,101028.66
2023-02-25T14:03:36.041Z,101030.09
2023-02-25T14:06:48.205Z,101027.91
2023-02-25T14:09:36.170Z,101030.38
2023-02-25T14:12:15.114Z,101039.19
2023-02-25T14:15:12.400Z,101025.22
2023-02-25T14:18:12.453Z,101041.59
2023-02-25T14:21:09.386Z,101043.38
2023-02-25T14:23:48.508Z,101043.47
2023-02-25T14:26:23.509Z,101058.75
2023-02-25T14:29:11.521Z,101067.31
2023-02-25T14:31:54.465Z,101063.16
2023-02-25T14:34:33.580Z,101060.13
2023-02-25T14:37:18.845Z,101074.22
2023-02-25T14:40:04.371Z,101074.44
2023-02-25T14:42:54.517Z,101068.88
2023-02-25T14:45:27.563Z,101079.28
2023-02-25T14:48:10.863Z,101088.09
2023-02-25T14:50:54.697Z,101087.63
2023-02-25T14:54:06.810Z,101090.88
2023-02-25T14:57:12.782Z,101095.28
2023-02-25T14:59:51.701Z,101104.16
2023-02-25T15:02:42.206Z,101106.69
2023-02-25T15:05:27.797Z,101106.72
2023-02-25T15:08:06.165Z,101113.66
2023-02-25T15:10:51.463Z,101120.25
2023-02-25T15:13:48.048Z,101115.84
2023-02-25T15:16:18.210Z,101122.47
2023-02-25T15:19:10.522Z,101128.22
2023-02-25T15:21:41.343Z,101125.16
2023-02-25T15:24:28.208Z,101131.19
2023-02-25T15:26:56.884Z,101138.66
2023-02-25T15:29:36.469Z,101141.94
2023-02-25T15:32:15.653Z,101148.00
2023-02-25T15:35:06.217Z,101151.34
2023-02-25T15:37:35.430Z,101155.81
2023-02-25T15:40:14.475Z,101158.34
2023-02-25T15:42:55.576Z,101158.31
2023-02-25T15:45:28.657Z,101157.66
2023-02-25T15:48:08.030Z,101163.78
2023-02-25T15:50:44.832Z,101164.16
2023-02-25T15:53:21.298Z,101177.91
2023-02-25T15:55:52.042Z,101196.31
2023-02-25T15:58:24.872Z,101187.53
2023-02-25T16:01:01.385Z,101185.59
2023-02-25T16:03:36.781Z,101193.16
2023-02-25T16:06:32.448Z,101193.03
2023-02-25T16:09:12.705Z,101196.97
2023-02-25T16:11:44.820Z,101197.75
2023-02-25T16:14:31.542Z,101197.34
2023-02-25T16:17:12.723Z,101208.88
2023-02-25T16:19:40.763Z,101213.56
2023-02-25T16:22:16.046Z,101204.72
2023-02-25T16:24:48.320Z,101207.50
2023-02-25T16:27:37.651Z,101208.63
2023-02-25T16:30:28.498Z,101227.84
2023-02-25T16:33:29.496Z,101228.38
2023-02-25T16:36:16.490Z,101237.72
2023-02-25T16:38:50.682Z,101245.34
2023-02-25T16:41:22.339Z,101240.19
2023-02-25T16:43:52.821Z,101236.88
2023-02-25T16:46:29.103Z,101200.81
2023-02-25T16:48:59.244Z,101244.78
2023-02-25T16:51:42.857Z,101250.03
2023-02-25T16:54:23.916Z,101253.50
2023-02-25T16:56:59.114Z,101257.03
2023-02-25T16:59:26.716Z,101256.38
2023-02-25T17:01:53.449Z,101262.53
2023-02-25T17:04:24.935Z,101262.66
2023-02-25T17:07:25.472Z,101265.53
2023-02-25T17:10:02.112Z,101280.41
2023-02-25T17:12:37.345Z,101279.16
2023-02-25T17:15:13.388Z,101281.91
2023-02-25T17:17:43.418Z,101257.50
2023-02-25T17:20:23.685Z,101292.06
2023-02-25T17:22:52.221Z,101292.56
2023-02-25T17:25:20.929Z,101301.72
2023-02-25T17:27:50.384Z,101288.72
2023-02-25T17:30:42.084Z,101306.22
2023-02-25T17:33:26.234Z,101312.19
2023-02-25T17:35:57.867Z,101320.56
2023-02-25T17:38:26.077Z,101326.56
2023-02-25T17:40:55.477Z,101323.25
2023-02-25T17:43:26.462Z,101334.88
2023-02-25T17:46:36.621Z,101337.50
2023-02-25T17:49:25.329Z,101355.63
2023-02-25T17:51:56.816Z,101364.28
2023-02-25T17:54:26.132Z,101376.66
2023-02-25T17:57:06.485Z,101387.41
2023-02-25T17:59:39.749Z,101387.16
2023-02-25T18:02:39.782Z,101380.91
2023-02-25T18:05:12.535Z,101379.41
2023-02-25T18:07:44.545Z,101387.31
2023-02-25T18:10:23.469Z,101384.06
2023-02-25T18:12:50.930Z,101383.31
2023-02-25T18:15:25.878Z,101397.03
2023-02-25T18:17:58.596Z,101398.75
2023-02-25T18:20:32.592Z,101395.19
2023-02-25T18:23:07.931Z,101399.47
2023-02-25T18:25:42.549Z,101387.47
2023-02-25T18:28:15.922Z,101382.38
2023-02-25T18:30:46.286Z,101401.56
2023-02-25T18:33:13.724Z,101391.44
2023-02-25T18:35:43.502Z,101412.41
2023-02-25T18:38:17.919Z,101410.09
2023-02-25T18:40:45.409Z,101403.53
2023-02-25T18:43:17.395Z,101409.97
2023-02-25T18:45:44.783Z,101393.13
2023-02-25T18:48:12.676Z,101396.94
2023-02-25T18:50:42.523Z,101419.34
2023-02-25T18:53:15.446Z,101419.25
2023-02-25T18:55:42.421Z,101430.19
2023-02-25T18:58:14.413Z,101432.22
2023-02-25T19:00:41.733Z,101440.78
2023-02-25T19:03:11.655Z,101451.25
2023-02-25T19:05:40.451Z,101447.81
2023-02-25T19:08:15.222Z,101454.38
2023-02-25T19:10:46.770Z,101451.97
2023-02-25T19:13:19.489Z,101450.78
2023-02-25T19:15:46.581Z,101458.66
2023-02-25T19:18:17.843Z,101459.69
2023-02-25T19:20:48.522Z,101461.25
2023-02-25T19:23:18.142Z,101466.72
2023-02-25T19:25:47.911Z,101444.03
2023-02-25T19:28:15.483Z,101467.00
2023-02-25T19:30:47.372Z,101477.63
2023-02-25T19:33:14.450Z,101480.78
2023-02-25T19:35:43.391Z,101478.03
2023-02-25T19:38:18.710Z,101487.63
2023-02-25T19:40:48.858Z,101490.63
2023-02-25T19:43:17.231Z,101483.91
2023-02-25T19:45:44.866Z,101478.69
2023-02-25T19:48:12.165Z,101486.53
2023-02-25T19:50:41.568Z,101484.13
2023-02-25T19:53:09.287Z,101492.53
2023-02-25T19:55:36.476Z,101487.69
2023-02-25T19:58:03.484Z,101496.56
2023-02-25T20:00:30.550Z,101501.03
2023-02-25T20:02:57.511Z,101497.44
2023-02-25T20:05:25.114Z,101489.34
2023-02-25T20:07:52.748Z,101507.47
2023-02-25T20:10:19.757Z,101508.97
2023-02-25T20:12:47.371Z,101527.94
2023-02-25T20:15:15.805Z,101490.34
2023-02-25T20:17:49.687Z,101534.69
2023-02-25T20:20:17.413Z,101550.19
2023-02-25T20:22:44.561Z,101567.41
2023-02-25T20:25:13.590Z,101550.41
2023-02-25T20:27:43.812Z,101554.53
2023-02-25T20:30:15.833Z,101551.16
2023-02-25T20:32:44.943Z,101570.75
2023-02-25T20:35:21.861Z,101550.41
2023-02-25T20:38:01.404Z,101560.56
2023-02-25T20:40:28.488Z,101554.91
2023-02-25T20:42:55.572Z,101537.22
2023-02-25T20:45:22.950Z,101556.19
2023-02-25T20:47:53.100Z,101545.00
2023-02-25T20:50:27.249Z,101557.84
2023-02-25T20:52:55.266Z,101551.84
2023-02-25T20:55:22.275Z,101558.38
2023-02-25T20:57:49.219Z,101562.63
2023-02-25T21:00:16.701Z,101581.72
2023-02-25T21:02:43.828Z,101570.88
2023-02-25T21:05:10.583Z,101576.84
2023-02-25T21:07:37.432Z,101580.56
2023-02-25T21:10:04.631Z,101583.69
2023-02-25T21:12:31.671Z,101586.56
2023-02-25T21:14:58.681Z,101581.56
2023-02-25T21:17:26.040Z,101576.94
2023-02-25T21:19:52.913Z,101587.56
2023-02-25T21:22:19.875Z,101596.13
2023-02-25T21:24:46.948Z,101594.16
2023-02-25T21:27:13.887Z,101581.28
2023-02-25T21:29:40.900Z,101584.00
2023-02-25T21:32:07.969Z,101599.41
2023-02-25T21:34:34.959Z,101596.38
2023-02-25T21:37:01.869Z,101595.06
2023-02-25T21:39:28.790Z,101602.59
2023-02-25T21:41:55.942Z,101609.13
2023-02-25T21:44:24.298Z,101620.28
2023-02-25T21:46:54.082Z,101616.66
2023-02-25T21:49:21.204Z,101629.41
2023-02-25T21:51:48.200Z,101635.34
2023-02-25T21:54:15.476Z,101626.63
2023-02-25T21:56:42.667Z,101642.38
2023-02-25T21:59:09.789Z,101634.63
2023-02-25T22:01:38.730Z,101658.97
2023-02-25T22:04:06.831Z,101668.28
2023-02-25T22:06:34.374Z,101662.41
2023-02-25T22:09:01.489Z,101652.84
2023-02-25T22:11:34.805Z,101655.13
2023-02-25T22:14:04.091Z,101660.38
2023-02-25T22:16:30.845Z,101682.00
2023-02-25T22:18:58.903Z,101673.28
2023-02-25T22:21:29.954Z,101667.19
2023-02-25T22:23:59.535Z,101671.66
2023-02-25T22:26:30.617Z,101671.66
2023-02-25T22:29:06.652Z,101663.91
2023-02-25T22:31:35.264Z,101665.13
2023-02-25T22:34:03.268Z,101666.16
2023-02-25T22:36:30.350Z,101669.50
2023-02-25T22:38:57.592Z,101667.22
2023-02-25T22:41:29.620Z,101681.22
2023-02-25T22:43:58.495Z,101681.50
2023-02-25T22:46:25.717Z,101693.19
2023-02-25T22:48:53.516Z,101693.81
2023-02-25T22:51:26.901Z,101689.81
2023-02-25T22:53:55.289Z,101697.97
2023-02-25T22:56:23.411Z,101691.41
2023-02-25T22:58:51.297Z,101695.38
2023-02-25T23:01:21.336Z,101693.78
2023-02-25T23:03:49.549Z,101700.47
2023-02-25T23:06:18.281Z,101703.19
2023-02-25T23:08:47.622Z,101701.94
2023-02-25T23:11:21.774Z,101709.84
2023-02-25T23:13:52.784Z,101722.38
2023-02-25T23:16:23.181Z,101730.66
2023-02-25T23:18:54.281Z,101737.63
2023-02-25T23:21:21.245Z,101732.56
2023-02-25T23:23:55.728Z,101734.09
2023-02-25T23:26:25.749Z,101738.06
2023-02-25T23:28:59.655Z,101742.59
2023-02-25T23:31:32.001Z,101746.19
2023-02-25T23:34:01.884Z,101730.75
2023-02-25T23:36:29.125Z,101739.94
2023-02-25T23:39:00.801Z,101756.94
2023-02-25T23:41:28.735Z,101744.56
2023-02-25T23:43:58.381Z,101748.81
2023-02-25T23:46:27.895Z,101756.41
2023-02-25T23:48:59.756Z,101765.41
2023-02-25T23:51:27.322Z,101764.78
2023-02-25T23:54:02.311Z,101775.69
2023-02-25T23:56:31.188Z,101776.34
2023-02-25T23:58:58.586Z,101764.94
